sensor_id;sensor_type;location;lat;lon;timestamp;temperature;humidity
69589;SHT31;56792;50.644;17.984;2022-08-06T00:00:14;24.68;55.00
69589;SHT31;56792;50.644;17.984;2022-08-06T00:02:50;24.66;55.07
69589;SHT31;56792;50.644;17.984;2022-08-06T00:05:22;24.65;55.17
69589;SHT31;56792;50.644;17.984;2022-08-06T00:07:55;24.64;55.25
69589;SHT31;56792;50.644;17.984;2022-08-06T00:10:27;24.62;55.23
69589;SHT31;56792;50.644;17.984;2022-08-06T00:13:00;24.63;55.19
69589;SHT31;56792;50.644;17.984;2022-08-06T00:15:33;24.63;55.16
69589;SHT31;56792;50.644;17.984;2022-08-06T00:18:06;24.63;55.24
69589;SHT31;56792;50.644;17.984;2022-08-06T00:20:39;24.63;55.28
69589;SHT31;56792;50.644;17.984;2022-08-06T00:23:11;24.62;55.34
69589;SHT31;56792;50.644;17.984;2022-08-06T00:25:44;24.61;55.40
69589;SHT31;56792;50.644;17.984;2022-08-06T00:28:16;24.59;55.47
69589;SHT31;56792;50.644;17.984;2022-08-06T00:30:49;24.57;55.59
69589;SHT31;56792;50.644;17.984;2022-08-06T00:33:21;24.55;55.72
69589;SHT31;56792;50.644;17.984;2022-08-06T00:35:56;24.53;55.77
69589;SHT31;56792;50.644;17.984;2022-08-06T00:38:28;24.50;55.84
69589;SHT31;56792;50.644;17.984;2022-08-06T00:41:00;24.48;55.88
69589;SHT31;56792;50.644;17.984;2022-08-06T00:43:33;24.46;55.99
69589;SHT31;56792;50.644;17.984;2022-08-06T00:46:06;24.43;56.15
69589;SHT31;56792;50.644;17.984;2022-08-06T00:48:38;24.40;56.28
69589;SHT31;56792;50.644;17.984;2022-08-06T00:51:10;24.38;56.39
69589;SHT31;56792;50.644;17.984;2022-08-06T00:53:42;24.36;56.60
69589;SHT31;56792;50.644;17.984;2022-08-06T00:56:16;24.35;56.69
69589;SHT31;56792;50.644;17.984;2022-08-06T00:58:48;24.33;56.86
69589;SHT31;56792;50.644;17.984;2022-08-06T01:01:22;24.33;56.96
69589;SHT31;56792;50.644;17.984;2022-08-06T01:03:58;24.33;57.08
69589;SHT31;56792;50.644;17.984;2022-08-06T01:06:31;24.32;57.31
69589;SHT31;56792;50.644;17.984;2022-08-06T01:09:04;24.31;57.44
69589;SHT31;56792;50.644;17.984;2022-08-06T01:11:37;24.32;57.61
69589;SHT31;56792;50.644;17.984;2022-08-06T01:14:09;24.32;57.79
69589;SHT31;56792;50.644;17.984;2022-08-06T01:16:43;24.30;57.86
69589;SHT31;56792;50.644;17.984;2022-08-06T01:19:26;24.29;58.09
69589;SHT31;56792;50.644;17.984;2022-08-06T01:22:23;24.27;58.33
69589;SHT31;56792;50.644;17.984;2022-08-06T01:25:17;24.24;58.64
69589;SHT31;56792;50.644;17.984;2022-08-06T01:28:28;24.20;59.07
69589;SHT31;56792;50.644;17.984;2022-08-06T01:31:04;24.17;59.16
69589;SHT31;56792;50.644;17.984;2022-08-06T01:33:43;24.14;59.50
69589;SHT31;56792;50.644;17.984;2022-08-06T01:36:21;24.11;59.99
69589;SHT31;56792;50.644;17.984;2022-08-06T01:39:05;24.08;60.31
69589;SHT31;56792;50.644;17.984;2022-08-06T01:41:41;24.02;60.69
69589;SHT31;56792;50.644;17.984;2022-08-06T01:44:20;24.00;61.01
69589;SHT31;56792;50.644;17.984;2022-08-06T01:47:02;23.97;61.39
69589;SHT31;56792;50.644;17.984;2022-08-06T01:49:41;23.95;61.68
69589;SHT31;56792;50.644;17.984;2022-08-06T01:52:18;23.91;61.92
69589;SHT31;56792;50.644;17.984;2022-08-06T01:54:54;23.87;62.18
69589;SHT31;56792;50.644;17.984;2022-08-06T01:57:29;23.84;62.42
69589;SHT31;56792;50.644;17.984;2022-08-06T02:00:05;23.81;62.58
69589;SHT31;56792;50.644;17.984;2022-08-06T02:02:52;23.79;62.91
69589;SHT31;56792;50.644;17.984;2022-08-06T02:05:47;23.74;63.24
69589;SHT31;56792;50.644;17.984;2022-08-06T02:08:34;23.70;63.42
69589;SHT31;56792;50.644;17.984;2022-08-06T02:11:24;23.68;63.72
69589;SHT31;56792;50.644;17.984;2022-08-06T02:14:02;23.67;63.82
69589;SHT31;56792;50.644;17.984;2022-08-06T02:16:42;23.65;64.00
69589;SHT31;56792;50.644;17.984;2022-08-06T02:19:21;23.62;64.16
69589;SHT31;56792;50.644;17.984;2022-08-06T02:22:03;23.59;64.35
69589;SHT31;56792;50.644;17.984;2022-08-06T02:24:41;23.56;64.49
69589;SHT31;56792;50.644;17.984;2022-08-06T02:27:19;23.55;64.58
69589;SHT31;56792;50.644;17.984;2022-08-06T02:29:58;23.52;64.65
69589;SHT31;56792;50.644;17.984;2022-08-06T02:32:42;23.51;64.77
69589;SHT31;56792;50.644;17.984;2022-08-06T02:35:18;23.48;64.81
69589;SHT31;56792;50.644;17.984;2022-08-06T02:37:56;23.47;64.92
69589;SHT31;56792;50.644;17.984;2022-08-06T02:40:42;23.44;65.02
69589;SHT31;56792;50.644;17.984;2022-08-06T02:43:27;23.41;65.18
69589;SHT31;56792;50.644;17.984;2022-08-06T02:46:12;23.38;65.37
69589;SHT31;56792;50.644;17.984;2022-08-06T02:48:58;23.34;65.63
69589;SHT31;56792;50.644;17.984;2022-08-06T02:51:44;23.30;65.69
69589;SHT31;56792;50.644;17.984;2022-08-06T02:54:28;23.31;65.91
69589;SHT31;56792;50.644;17.984;2022-08-06T02:57:21;23.28;66.22
69589;SHT31;56792;50.644;17.984;2022-08-06T03:00:07;23.25;66.60
69589;SHT31;56792;50.644;17.984;2022-08-06T03:02:57;23.20;66.90
69589;SHT31;56792;50.644;17.984;2022-08-06T03:05:39;23.16;67.15
69589;SHT31;56792;50.644;17.984;2022-08-06T03:08:22;23.12;67.31
69589;SHT31;56792;50.644;17.984;2022-08-06T03:11:01;23.07;67.51
69589;SHT31;56792;50.644;17.984;2022-08-06T03:13:44;23.04;67.77
69589;SHT31;56792;50.644;17.984;2022-08-06T03:16:22;23.01;67.93
69589;SHT31;56792;50.644;17.984;2022-08-06T03:19:03;22.98;68.41
69589;SHT31;56792;50.644;17.984;2022-08-06T03:21:47;22.93;68.82
69589;SHT31;56792;50.644;17.984;2022-08-06T03:24:27;22.92;69.32
69589;SHT31;56792;50.644;17.984;2022-08-06T03:27:11;22.87;70.15
69589;SHT31;56792;50.644;17.984;2022-08-06T03:29:54;22.80;70.85
69589;SHT31;56792;50.644;17.984;2022-08-06T03:32:33;22.69;71.55
69589;SHT31;56792;50.644;17.984;2022-08-06T03:35:17;22.61;72.28
69589;SHT31;56792;50.644;17.984;2022-08-06T03:37:55;22.56;72.77
69589;SHT31;56792;50.644;17.984;2022-08-06T03:40:31;22.51;73.16
69589;SHT31;56792;50.644;17.984;2022-08-06T03:43:09;22.44;73.39
69589;SHT31;56792;50.644;17.984;2022-08-06T03:45:48;22.37;73.65
69589;SHT31;56792;50.644;17.984;2022-08-06T03:48:31;22.34;74.27
69589;SHT31;56792;50.644;17.984;2022-08-06T03:51:13;22.27;74.79
69589;SHT31;56792;50.644;17.984;2022-08-06T03:53:57;22.24;75.03
69589;SHT31;56792;50.644;17.984;2022-08-06T03:56:37;22.16;75.35
69589;SHT31;56792;50.644;17.984;2022-08-06T03:59:17;22.10;75.57
69589;SHT31;56792;50.644;17.984;2022-08-06T04:01:57;22.06;75.82
69589;SHT31;56792;50.644;17.984;2022-08-06T04:04:46;22.02;76.06
69589;SHT31;56792;50.644;17.984;2022-08-06T04:07:39;21.98;76.22
69589;SHT31;56792;50.644;17.984;2022-08-06T04:10:32;21.98;76.44
69589;SHT31;56792;50.644;17.984;2022-08-06T04:13:21;21.96;76.70
69589;SHT31;56792;50.644;17.984;2022-08-06T04:16:12;21.91;76.94
69589;SHT31;56792;50.644;17.984;2022-08-06T04:18:50;21.88;77.14
69589;SHT31;56792;50.644;17.984;2022-08-06T04:21:36;21.87;77.22
69589;SHT31;56792;50.644;17.984;2022-08-06T04:24:16;21.84;77.42
69589;SHT31;56792;50.644;17.984;2022-08-06T04:27:02;21.81;77.61
69589;SHT31;56792;50.644;17.984;2022-08-06T04:29:43;21.79;77.87
69589;SHT31;56792;50.644;17.984;2022-08-06T04:32:38;21.75;78.01
69589;SHT31;56792;50.644;17.984;2022-08-06T04:35:19;21.75;78.01
69589;SHT31;56792;50.644;17.984;2022-08-06T04:38:14;21.76;78.14
69589;SHT31;56792;50.644;17.984;2022-08-06T04:40:55;21.76;78.22
69589;SHT31;56792;50.644;17.984;2022-08-06T04:43:48;21.75;78.34
69589;SHT31;56792;50.644;17.984;2022-08-06T04:46:41;21.73;78.48
69589;SHT31;56792;50.644;17.984;2022-08-06T04:49:20;21.74;78.71
69589;SHT31;56792;50.644;17.984;2022-08-06T04:52:02;21.74;78.94
69589;SHT31;56792;50.644;17.984;2022-08-06T04:54:47;21.76;78.91
69589;SHT31;56792;50.644;17.984;2022-08-06T04:57:39;21.78;78.92
69589;SHT31;56792;50.644;17.984;2022-08-06T05:00:21;21.79;79.21
69589;SHT31;56792;50.644;17.984;2022-08-06T05:03:04;21.79;79.35
69589;SHT31;56792;50.644;17.984;2022-08-06T05:05:59;21.78;79.59
69589;SHT31;56792;50.644;17.984;2022-08-06T05:08:55;21.76;79.66
69589;SHT31;56792;50.644;17.984;2022-08-06T05:11:48;21.75;79.75
69589;SHT31;56792;50.644;17.984;2022-08-06T05:14:32;21.74;79.71
69589;SHT31;56792;50.644;17.984;2022-08-06T05:17:34;21.61;79.70
69589;SHT31;56792;50.644;17.984;2022-08-06T05:20:23;21.52;79.73
69589;SHT31;56792;50.644;17.984;2022-08-06T05:23:20;21.43;79.72
69589;SHT31;56792;50.644;17.984;2022-08-06T05:26:15;21.37;79.75
69589;SHT31;56792;50.644;17.984;2022-08-06T05:28:57;21.25;79.60
69589;SHT31;56792;50.644;17.984;2022-08-06T05:31:49;21.02;78.61
69589;SHT31;56792;50.644;17.984;2022-08-06T05:34:47;20.69;77.98
69589;SHT31;56792;50.644;17.984;2022-08-06T05:37:30;20.35;77.97
69589;SHT31;56792;50.644;17.984;2022-08-06T05:40:08;20.03;78.08
69589;SHT31;56792;50.644;17.984;2022-08-06T05:42:45;19.78;78.32
69589;SHT31;56792;50.644;17.984;2022-08-06T05:45:29;19.63;78.35
69589;SHT31;56792;50.644;17.984;2022-08-06T05:48:09;19.56;78.55
69589;SHT31;56792;50.644;17.984;2022-08-06T05:50:50;19.34;78.59
69589;SHT31;56792;50.644;17.984;2022-08-06T05:53:35;19.24;78.57
69589;SHT31;56792;50.644;17.984;2022-08-06T05:56:16;19.20;78.39
69589;SHT31;56792;50.644;17.984;2022-08-06T05:58:58;19.06;78.61
69589;SHT31;56792;50.644;17.984;2022-08-06T06:01:39;18.92;78.87
69589;SHT31;56792;50.644;17.984;2022-08-06T06:04:25;18.85;79.00
69589;SHT31;56792;50.644;17.984;2022-08-06T06:07:03;18.76;79.18
69589;SHT31;56792;50.644;17.984;2022-08-06T06:09:39;18.68;79.31
69589;SHT31;56792;50.644;17.984;2022-08-06T06:12:18;18.65;79.45
69589;SHT31;56792;50.644;17.984;2022-08-06T06:14:54;18.59;79.56
69589;SHT31;56792;50.644;17.984;2022-08-06T06:17:36;18.58;79.56
69589;SHT31;56792;50.644;17.984;2022-08-06T06:24:29;18.53;79.80
69589;SHT31;56792;50.644;17.984;2022-08-06T06:27:12;18.50;79.91
69589;SHT31;56792;50.644;17.984;2022-08-06T06:29:57;18.50;79.87
69589;SHT31;56792;50.644;17.984;2022-08-06T06:32:39;18.48;79.96
69589;SHT31;56792;50.644;17.984;2022-08-06T06:35:22;18.40;80.11
69589;SHT31;56792;50.644;17.984;2022-08-06T06:38:11;18.33;80.15
69589;SHT31;56792;50.644;17.984;2022-08-06T06:41:14;18.33;80.15
69589;SHT31;56792;50.644;17.984;2022-08-06T06:47:17;18.25;80.17
69589;SHT31;56792;50.644;17.984;2022-08-06T06:52:51;18.16;80.09
69589;SHT31;56792;50.644;17.984;2022-08-06T06:59:18;18.25;79.82
69589;SHT31;56792;50.644;17.984;2022-08-06T07:02:51;18.23;79.82
69589;SHT31;56792;50.644;17.984;2022-08-06T07:05:48;18.19;79.45
69589;SHT31;56792;50.644;17.984;2022-08-06T07:08:30;18.12;79.22
69589;SHT31;56792;50.644;17.984;2022-08-06T07:11:18;18.06;79.26
69589;SHT31;56792;50.644;17.984;2022-08-06T07:14:42;17.99;79.40
69589;SHT31;56792;50.644;17.984;2022-08-06T07:17:21;17.95;79.28
69589;SHT31;56792;50.644;17.984;2022-08-06T07:20:00;17.90;79.16
69589;SHT31;56792;50.644;17.984;2022-08-06T07:22:43;17.85;79.37
69589;SHT31;56792;50.644;17.984;2022-08-06T07:25:22;17.80;79.48
69589;SHT31;56792;50.644;17.984;2022-08-06T07:28:30;17.76;79.58
69589;SHT31;56792;50.644;17.984;2022-08-06T07:31:11;17.71;79.79
69589;SHT31;56792;50.644;17.984;2022-08-06T07:33:49;17.70;79.80
69589;SHT31;56792;50.644;17.984;2022-08-06T07:37:22;17.76;79.65
69589;SHT31;56792;50.644;17.984;2022-08-06T07:40:02;17.75;79.52
69589;SHT31;56792;50.644;17.984;2022-08-06T07:42:50;17.80;79.44
69589;SHT31;56792;50.644;17.984;2022-08-06T07:45:36;17.86;79.36
69589;SHT31;56792;50.644;17.984;2022-08-06T07:48:26;17.90;79.43
69589;SHT31;56792;50.644;17.984;2022-08-06T07:51:14;17.89;79.57
69589;SHT31;56792;50.644;17.984;2022-08-06T07:53:56;17.97;79.67
69589;SHT31;56792;50.644;17.984;2022-08-06T07:56:35;18.08;79.33
69589;SHT31;56792;50.644;17.984;2022-08-06T07:59:18;18.15;79.00
69589;SHT31;56792;50.644;17.984;2022-08-06T08:01:57;18.24;78.88
69589;SHT31;56792;50.644;17.984;2022-08-06T08:04:35;18.31;78.75
69589;SHT31;56792;50.644;17.984;2022-08-06T08:07:45;18.35;78.81
69589;SHT31;56792;50.644;17.984;2022-08-06T08:10:23;18.31;78.74
69589;SHT31;56792;50.644;17.984;2022-08-06T08:12:59;18.36;78.62
69589;SHT31;56792;50.644;17.984;2022-08-06T08:19:20;18.51;78.29
69589;SHT31;56792;50.644;17.984;2022-08-06T08:22:02;18.53;78.20
69589;SHT31;56792;50.644;17.984;2022-08-06T08:24:56;18.59;78.23
69589;SHT31;56792;50.644;17.984;2022-08-06T08:27:29;18.65;78.16
69589;SHT31;56792;50.644;17.984;2022-08-06T08:30:06;18.71;78.01
69589;SHT31;56792;50.644;17.984;2022-08-06T08:33:08;18.80;77.88
69589;SHT31;56792;50.644;17.984;2022-08-06T08:36:02;18.82;77.60
69589;SHT31;56792;50.644;17.984;2022-08-06T08:38:58;18.84;77.55
69589;SHT31;56792;50.644;17.984;2022-08-06T08:41:44;18.97;77.84
69589;SHT31;56792;50.644;17.984;2022-08-06T08:44:34;19.14;77.94
69589;SHT31;56792;50.644;17.984;2022-08-06T08:47:29;19.31;77.66
69589;SHT31;56792;50.644;17.984;2022-08-06T08:50:11;19.45;77.04
69589;SHT31;56792;50.644;17.984;2022-08-06T08:52:58;19.55;76.67
69589;SHT31;56792;50.644;17.984;2022-08-06T08:55:38;19.69;76.17
69589;SHT31;56792;50.644;17.984;2022-08-06T08:58:23;19.75;75.84
69589;SHT31;56792;50.644;17.984;2022-08-06T09:00:58;19.73;75.92
69589;SHT31;56792;50.644;17.984;2022-08-06T09:03:31;19.78;75.56
69589;SHT31;56792;50.644;17.984;2022-08-06T09:06:07;19.81;75.80
69589;SHT31;56792;50.644;17.984;2022-08-06T09:08:43;19.83;75.34
69589;SHT31;56792;50.644;17.984;2022-08-06T09:11:39;19.85;75.16
69589;SHT31;56792;50.644;17.984;2022-08-06T09:14:24;19.76;75.16
69589;SHT31;56792;50.644;17.984;2022-08-06T09:17:17;19.82;75.32
69589;SHT31;56792;50.644;17.984;2022-08-06T09:20:07;19.84;75.03
69589;SHT31;56792;50.644;17.984;2022-08-06T09:22:55;19.92;75.03
69589;SHT31;56792;50.644;17.984;2022-08-06T09:25:38;20.02;74.70
69589;SHT31;56792;50.644;17.984;2022-08-06T09:28:30;20.09;74.26
69589;SHT31;56792;50.644;17.984;2022-08-06T09:31:10;20.09;74.09
69589;SHT31;56792;50.644;17.984;2022-08-06T09:33:56;20.11;73.80
69589;SHT31;56792;50.644;17.984;2022-08-06T09:37:28;20.06;73.85
69589;SHT31;56792;50.644;17.984;2022-08-06T09:44:08;19.99;73.77
69589;SHT31;56792;50.644;17.984;2022-08-06T09:47:37;19.85;73.96
69589;SHT31;56792;50.644;17.984;2022-08-06T09:50:15;19.82;74.05
69589;SHT31;56792;50.644;17.984;2022-08-06T09:53:18;19.87;73.85
69589;SHT31;56792;50.644;17.984;2022-08-06T09:56:15;19.82;73.95
69589;SHT31;56792;50.644;17.984;2022-08-06T09:58:50;19.79;74.25
69589;SHT31;56792;50.644;17.984;2022-08-06T10:01:38;19.81;74.31
69589;SHT31;56792;50.644;17.984;2022-08-06T10:04:24;19.83;74.15
69589;SHT31;56792;50.644;17.984;2022-08-06T10:07:04;19.88;73.94
69589;SHT31;56792;50.644;17.984;2022-08-06T10:38:22;20.59;72.39
69589;SHT31;56792;50.644;17.984;2022-08-06T10:41:17;20.74;72.08
69589;SHT31;56792;50.644;17.984;2022-08-06T10:43:56;20.87;71.92
69589;SHT31;56792;50.644;17.984;2022-08-06T10:46:35;20.97;71.42
69589;SHT31;56792;50.644;17.984;2022-08-06T10:52:27;21.02;71.02
69589;SHT31;56792;50.644;17.984;2022-08-06T11:07:49;21.64;68.85
69589;SHT31;56792;50.644;17.984;2022-08-06T11:10:49;21.69;68.54
69589;SHT31;56792;50.644;17.984;2022-08-06T11:13:49;21.77;68.31
69589;SHT31;56792;50.644;17.984;2022-08-06T11:16:31;21.84;67.25
69589;SHT31;56792;50.644;17.984;2022-08-06T11:25:06;22.73;66.57
69589;SHT31;56792;50.644;17.984;2022-08-06T11:27:49;23.42;65.83
69589;SHT31;56792;50.644;17.984;2022-08-06T11:30:35;23.80;64.06
69589;SHT31;56792;50.644;17.984;2022-08-06T11:37:49;23.77;63.31
69589;SHT31;56792;50.644;17.984;2022-08-06T11:40:25;23.80;62.56
69589;SHT31;56792;50.644;17.984;2022-08-06T11:43:52;23.89;62.72
69589;SHT31;56792;50.644;17.984;2022-08-06T11:46:48;24.31;62.07
69589;SHT31;56792;50.644;17.984;2022-08-06T11:49:51;24.07;61.10
69589;SHT31;56792;50.644;17.984;2022-08-06T11:52:44;23.99;61.01
69589;SHT31;56792;50.644;17.984;2022-08-06T11:55:41;24.24;61.01
69589;SHT31;56792;50.644;17.984;2022-08-06T11:58:42;24.61;60.05
69589;SHT31;56792;50.644;17.984;2022-08-06T12:01:32;24.77;59.28
69589;SHT31;56792;50.644;17.984;2022-08-06T12:04:45;24.86;58.51
69589;SHT31;56792;50.644;17.984;2022-08-06T12:07:27;25.00;57.74
69589;SHT31;56792;50.644;17.984;2022-08-06T12:10:23;25.22;57.37
69589;SHT31;56792;50.644;17.984;2022-08-06T12:13:03;25.49;57.23
69589;SHT31;56792;50.644;17.984;2022-08-06T12:19:22;26.22;55.65
69589;SHT31;56792;50.644;17.984;2022-08-06T12:22:19;26.33;54.74
69589;SHT31;56792;50.644;17.984;2022-08-06T12:25:05;26.39;54.14
